sensor_id;sensor_type;location;lat;lon;timestamp;P1;durP1;ratioP1;P2;durP2;ratioP2
66163;SDS011;52962;51.088;3.096;2022-10-31T00:01:29;1.83;;;1.70;;
66163;SDS011;52962;51.088;3.096;2022-10-31T00:03:59;1.77;;;1.40;;
66163;SDS011;52962;51.088;3.096;2022-10-31T00:06:27;1.70;;;1.50;;
66163;SDS011;52962;51.088;3.096;2022-10-31T00:08:57;3.70;;;1.65;;
66163;SDS011;52962;51.088;3.096;2022-10-31T00:11:27;1.85;;;1.75;;
66163;SDS011;52962;51.088;3.096;2022-10-31T00:16:24;1.80;;;1.70;;
66163;SDS011;52962;51.088;3.096;2022-10-31T00:18:53;2.20;;;1.92;;
66163;SDS011;52962;51.088;3.096;2022-10-31T00:21:23;3.28;;;1.92;;
66163;SDS011;52962;51.088;3.096;2022-10-31T00:23:53;2.50;;;2.00;;
66163;SDS011;52962;51.088;3.096;2022-10-31T00:26:23;3.33;;;1.60;;
66163;SDS011;52962;51.088;3.096;2022-10-31T00:28:51;1.83;;;1.50;;
66163;SDS011;52962;51.088;3.096;2022-10-31T00:31:19;2.10;;;1.83;;
66163;SDS011;52962;51.088;3.096;2022-10-31T00:33:47;2.33;;;1.70;;
66163;SDS011;52962;51.088;3.096;2022-10-31T00:36:16;2.13;;;1.92;;
66163;SDS011;52962;51.088;3.096;2022-10-31T00:38:45;2.97;;;2.67;;
66163;SDS011;52962;51.088;3.096;2022-10-31T00:41:14;1.52;;;1.42;;
66163;SDS011;52962;51.088;3.096;2022-10-31T00:43:44;2.22;;;2.03;;
66163;SDS011;52962;51.088;3.096;2022-10-31T00:46:12;2.80;;;2.20;;
66163;SDS011;52962;51.088;3.096;2022-10-31T00:48:41;1.90;;;1.65;;
66163;SDS011;52962;51.088;3.096;2022-10-31T00:51:09;2.50;;;2.33;;
66163;SDS011;52962;51.088;3.096;2022-10-31T00:53:36;3.03;;;1.80;;
66163;SDS011;52962;51.088;3.096;2022-10-31T00:56:05;2.38;;;2.17;;
66163;SDS011;52962;51.088;3.096;2022-10-31T00:58:33;2.58;;;2.00;;
66163;SDS011;52962;51.088;3.096;2022-10-31T01:01:02;2.83;;;1.67;;
66163;SDS011;52962;51.088;3.096;2022-10-31T01:03:32;3.70;;;2.15;;
66163;SDS011;52962;51.088;3.096;2022-10-31T01:06:02;4.18;;;2.10;;
66163;SDS011;52962;51.088;3.096;2022-10-31T01:08:31;2.08;;;1.73;;
66163;SDS011;52962;51.088;3.096;2022-10-31T01:10:59;2.85;;;1.90;;
66163;SDS011;52962;51.088;3.096;2022-10-31T01:13:29;2.00;;;1.90;;
66163;SDS011;52962;51.088;3.096;2022-10-31T01:18:26;3.10;;;2.20;;
66163;SDS011;52962;51.088;3.096;2022-10-31T01:20:59;2.90;;;2.45;;
66163;SDS011;52962;51.088;3.096;2022-10-31T01:23:27;2.00;;;1.80;;
66163;SDS011;52962;51.088;3.096;2022-10-31T01:25:59;1.98;;;1.77;;
66163;SDS011;52962;51.088;3.096;2022-10-31T01:28:32;1.90;;;1.67;;
66163;SDS011;52962;51.088;3.096;2022-10-31T01:31:01;1.83;;;1.52;;
66163;SDS011;52962;51.088;3.096;2022-10-31T01:33:31;2.45;;;1.55;;
66163;SDS011;52962;51.088;3.096;2022-10-31T01:35:59;1.80;;;1.70;;
66163;SDS011;52962;51.088;3.096;2022-10-31T01:38:27;3.08;;;2.30;;
66163;SDS011;52962;51.088;3.096;2022-10-31T01:40:55;2.50;;;2.30;;
66163;SDS011;52962;51.088;3.096;2022-10-31T01:43:23;3.53;;;1.80;;
66163;SDS011;52962;51.088;3.096;2022-10-31T01:46:08;2.80;;;1.73;;
66163;SDS011;52962;51.088;3.096;2022-10-31T01:48:38;2.33;;;1.90;;
66163;SDS011;52962;51.088;3.096;2022-10-31T01:51:09;2.00;;;1.70;;
66163;SDS011;52962;51.088;3.096;2022-10-31T01:53:40;1.88;;;1.63;;
66163;SDS011;52962;51.088;3.096;2022-10-31T01:56:11;1.85;;;1.60;;
66163;SDS011;52962;51.088;3.096;2022-10-31T01:58:41;1.70;;;1.50;;
66163;SDS011;52962;51.088;3.096;2022-10-31T02:01:10;2.45;;;2.13;;
66163;SDS011;52962;51.088;3.096;2022-10-31T02:03:41;2.35;;;1.77;;
66163;SDS011;52962;51.088;3.096;2022-10-31T02:06:12;2.35;;;2.15;;
66163;SDS011;52962;51.088;3.096;2022-10-31T02:08:48;3.13;;;1.90;;
66163;SDS011;52962;51.088;3.096;2022-10-31T02:11:17;2.50;;;1.92;;
66163;SDS011;52962;51.088;3.096;2022-10-31T02:13:45;2.70;;;1.83;;
66163;SDS011;52962;51.088;3.096;2022-10-31T02:16:15;2.13;;;1.92;;
66163;SDS011;52962;51.088;3.096;2022-10-31T02:18:44;2.58;;;2.08;;
66163;SDS011;52962;51.088;3.096;2022-10-31T02:21:14;1.95;;;1.73;;
66163;SDS011;52962;51.088;3.096;2022-10-31T02:27:02;2.22;;;2.03;;
66163;SDS011;52962;51.088;3.096;2022-10-31T02:29:42;2.10;;;1.88;;
66163;SDS011;52962;51.088;3.096;2022-10-31T02:32:24;2.30;;;2.10;;
66163;SDS011;52962;51.088;3.096;2022-10-31T02:34:57;2.40;;;2.20;;
66163;SDS011;52962;51.088;3.096;2022-10-31T02:37:30;1.80;;;1.70;;
66163;SDS011;52962;51.088;3.096;2022-10-31T02:40:09;2.50;;;2.30;;
66163;SDS011;52962;51.088;3.096;2022-10-31T02:42:44;1.58;;;1.48;;
66163;SDS011;52962;51.088;3.096;2022-10-31T02:45:20;2.38;;;2.13;;
66163;SDS011;52962;51.088;3.096;2022-10-31T02:47:54;2.70;;;1.77;;
66163;SDS011;52962;51.088;3.096;2022-10-31T02:50:26;2.00;;;1.80;;
66163;SDS011;52962;51.088;3.096;2022-10-31T02:52:57;1.95;;;1.75;;
66163;SDS011;52962;51.088;3.096;2022-10-31T02:55:42;2.65;;;1.92;;
66163;SDS011;52962;51.088;3.096;2022-10-31T02:58:25;2.10;;;1.63;;
66163;SDS011;52962;51.088;3.096;2022-10-31T03:01:04;2.20;;;1.98;;
66163;SDS011;52962;51.088;3.096;2022-10-31T03:03:46;3.08;;;2.05;;
66163;SDS011;52962;51.088;3.096;2022-10-31T03:06:28;1.85;;;1.63;;
66163;SDS011;52962;51.088;3.096;2022-10-31T03:09:02;2.20;;;1.90;;
66163;SDS011;52962;51.088;3.096;2022-10-31T03:11:40;2.03;;;1.83;;
66163;SDS011;52962;51.088;3.096;2022-10-31T03:14:15;3.25;;;2.30;;
66163;SDS011;52962;51.088;3.096;2022-10-31T03:16:48;2.28;;;1.65;;
66163;SDS011;52962;51.088;3.096;2022-10-31T03:19:19;2.90;;;2.00;;
66163;SDS011;52962;51.088;3.096;2022-10-31T03:21:53;1.77;;;1.67;;
66163;SDS011;52962;51.088;3.096;2022-10-31T03:24:27;2.72;;;2.13;;
66163;SDS011;52962;51.088;3.096;2022-10-31T03:26:59;2.28;;;2.08;;
66163;SDS011;52962;51.088;3.096;2022-10-31T03:29:30;2.53;;;2.33;;
66163;SDS011;52962;51.088;3.096;2022-10-31T03:32:00;2.35;;;2.17;;
66163;SDS011;52962;51.088;3.096;2022-10-31T03:34:32;2.15;;;1.90;;
66163;SDS011;52962;51.088;3.096;2022-10-31T03:37:03;3.25;;;2.95;;
66163;SDS011;52962;51.088;3.096;2022-10-31T03:39:34;3.42;;;2.17;;
66163;SDS011;52962;51.088;3.096;2022-10-31T03:42:05;2.55;;;2.35;;
66163;SDS011;52962;51.088;3.096;2022-10-31T03:44:36;2.90;;;2.17;;
66163;SDS011;52962;51.088;3.096;2022-10-31T03:47:08;3.47;;;1.80;;
66163;SDS011;52962;51.088;3.096;2022-10-31T03:49:37;2.22;;;1.90;;
66163;SDS011;52962;51.088;3.096;2022-10-31T03:52:07;1.92;;;1.83;;
66163;SDS011;52962;51.088;3.096;2022-10-31T03:54:42;2.65;;;1.80;;
66163;SDS011;52962;51.088;3.096;2022-10-31T03:57:14;2.22;;;2.03;;
66163;SDS011;52962;51.088;3.096;2022-10-31T03:59:47;4.22;;;2.42;;
66163;SDS011;52962;51.088;3.096;2022-10-31T04:02:21;2.63;;;1.95;;
66163;SDS011;52962;51.088;3.096;2022-10-31T04:04:55;2.42;;;1.98;;
66163;SDS011;52962;51.088;3.096;2022-10-31T04:07:23;3.25;;;2.30;;
66163;SDS011;52962;51.088;3.096;2022-10-31T04:09:57;2.67;;;2.47;;
66163;SDS011;52962;51.088;3.096;2022-10-31T04:12:27;5.50;;;2.05;;
66163;SDS011;52962;51.088;3.096;2022-10-31T04:14:58;2.63;;;2.42;;
66163;SDS011;52962;51.088;3.096;2022-10-31T04:17:29;2.83;;;2.50;;
66163;SDS011;52962;51.088;3.096;2022-10-31T04:20:03;3.28;;;2.20;;
66163;SDS011;52962;51.088;3.096;2022-10-31T04:22:31;2.90;;;2.70;;
66163;SDS011;52962;51.088;3.096;2022-10-31T04:24:59;2.20;;;2.00;;
66163;SDS011;52962;51.088;3.096;2022-10-31T04:27:27;3.28;;;2.42;;
66163;SDS011;52962;51.088;3.096;2022-10-31T04:29:55;4.00;;;2.53;;
66163;SDS011;52962;51.088;3.096;2022-10-31T04:32:23;2.95;;;2.75;;
66163;SDS011;52962;51.088;3.096;2022-10-31T04:34:50;2.45;;;2.25;;
66163;SDS011;52962;51.088;3.096;2022-10-31T04:37:19;4.43;;;2.42;;
66163;SDS011;52962;51.088;3.096;2022-10-31T04:39:47;2.63;;;2.33;;
66163;SDS011;52962;51.088;3.096;2022-10-31T04:42:15;12.48;;;2.85;;
66163;SDS011;52962;51.088;3.096;2022-10-31T04:44:43;4.70;;;2.67;;
66163;SDS011;52962;51.088;3.096;2022-10-31T04:47:11;2.78;;;2.33;;
66163;SDS011;52962;51.088;3.096;2022-10-31T04:49:39;2.58;;;2.22;;
66163;SDS011;52962;51.088;3.096;2022-10-31T04:52:06;2.92;;;2.53;;
66163;SDS011;52962;51.088;3.096;2022-10-31T04:54:36;2.58;;;2.38;;
66163;SDS011;52962;51.088;3.096;2022-10-31T04:57:04;3.25;;;2.90;;
66163;SDS011;52962;51.088;3.096;2022-10-31T05:01:59;2.03;;;1.92;;
66163;SDS011;52962;51.088;3.096;2022-10-31T05:11:52;2.15;;;1.95;;
66163;SDS011;52962;51.088;3.096;2022-10-31T05:14:20;3.63;;;2.28;;
66163;SDS011;52962;51.088;3.096;2022-10-31T05:16:47;2.55;;;2.35;;
66163;SDS011;52962;51.088;3.096;2022-10-31T05:19:15;2.70;;;2.28;;
66163;SDS011;52962;51.088;3.096;2022-10-31T05:21:43;2.80;;;2.53;;
66163;SDS011;52962;51.088;3.096;2022-10-31T05:24:11;2.60;;;2.40;;
66163;SDS011;52962;51.088;3.096;2022-10-31T05:26:39;2.80;;;2.60;;
66163;SDS011;52962;51.088;3.096;2022-10-31T05:29:08;2.63;;;2.17;;
66163;SDS011;52962;51.088;3.096;2022-10-31T05:31:36;2.50;;;2.30;;
66163;SDS011;52962;51.088;3.096;2022-10-31T05:34:03;3.67;;;2.50;;
66163;SDS011;52962;51.088;3.096;2022-10-31T05:36:31;2.63;;;2.33;;
66163;SDS011;52962;51.088;3.096;2022-10-31T05:38:59;3.30;;;2.42;;
66163;SDS011;52962;51.088;3.096;2022-10-31T05:41:27;4.13;;;2.42;;
66163;SDS011;52962;51.088;3.096;2022-10-31T05:43:55;2.50;;;2.25;;
66163;SDS011;52962;51.088;3.096;2022-10-31T05:46:24;2.25;;;2.03;;
66163;SDS011;52962;51.088;3.096;2022-10-31T05:48:52;2.78;;;2.10;;
66163;SDS011;52962;51.088;3.096;2022-10-31T05:51:25;2.38;;;2.08;;
66163;SDS011;52962;51.088;3.096;2022-10-31T05:53:52;2.58;;;1.98;;
66163;SDS011;52962;51.088;3.096;2022-10-31T05:56:20;2.20;;;2.00;;
66163;SDS011;52962;51.088;3.096;2022-10-31T05:58:48;2.70;;;2.28;;
66163;SDS011;52962;51.088;3.096;2022-10-31T06:01:16;4.07;;;2.10;;
66163;SDS011;52962;51.088;3.096;2022-10-31T06:03:46;3.22;;;2.80;;
66163;SDS011;52962;51.088;3.096;2022-10-31T06:06:14;3.10;;;2.20;;
66163;SDS011;52962;51.088;3.096;2022-10-31T06:08:42;3.97;;;2.63;;
66163;SDS011;52962;51.088;3.096;2022-10-31T06:11:10;6.53;;;3.25;;
66163;SDS011;52962;51.088;3.096;2022-10-31T06:13:38;3.20;;;2.75;;
66163;SDS011;52962;51.088;3.096;2022-10-31T06:16:06;3.63;;;2.80;;
66163;SDS011;52962;51.088;3.096;2022-10-31T06:18:34;5.40;;;3.40;;
66163;SDS011;52962;51.088;3.096;2022-10-31T06:21:03;4.28;;;3.00;;
66163;SDS011;52962;51.088;3.096;2022-10-31T06:23:31;3.15;;;2.67;;
66163;SDS011;52962;51.088;3.096;2022-10-31T06:25:59;2.60;;;2.40;;
66163;SDS011;52962;51.088;3.096;2022-10-31T06:28:26;2.88;;;2.67;;
66163;SDS011;52962;51.088;3.096;2022-10-31T06:30:54;2.67;;;2.45;;
66163;SDS011;52962;51.088;3.096;2022-10-31T06:33:22;3.08;;;2.67;;
66163;SDS011;52962;51.088;3.096;2022-10-31T06:35:50;2.65;;;2.45;;
66163;SDS011;52962;51.088;3.096;2022-10-31T06:38:19;3.97;;;2.60;;
66163;SDS011;52962;51.088;3.096;2022-10-31T06:40:47;3.08;;;2.70;;
66163;SDS011;52962;51.088;3.096;2022-10-31T06:43:15;2.80;;;2.53;;
66163;SDS011;52962;51.088;3.096;2022-10-31T06:45:42;3.45;;;3.03;;
66163;SDS011;52962;51.088;3.096;2022-10-31T06:48:10;3.92;;;2.47;;
66163;SDS011;52962;51.088;3.096;2022-10-31T06:50:43;4.10;;;3.28;;
66163;SDS011;52962;51.088;3.096;2022-10-31T06:53:11;3.50;;;3.20;;
66163;SDS011;52962;51.088;3.096;2022-10-31T06:55:41;5.93;;;3.20;;
66163;SDS011;52962;51.088;3.096;2022-10-31T06:58:10;4.50;;;3.80;;
66163;SDS011;52962;51.088;3.096;2022-10-31T07:00:38;4.90;;;3.20;;
66163;SDS011;52962;51.088;3.096;2022-10-31T07:03:09;5.50;;;3.78;;
66163;SDS011;52962;51.088;3.096;2022-10-31T07:05:38;4.05;;;2.75;;
66163;SDS011;52962;51.088;3.096;2022-10-31T07:08:08;4.32;;;3.47;;
66163;SDS011;52962;51.088;3.096;2022-10-31T07:10:38;4.38;;;3.35;;
66163;SDS011;52962;51.088;3.096;2022-10-31T07:13:10;3.35;;;3.05;;
66163;SDS011;52962;51.088;3.096;2022-10-31T07:15:39;4.55;;;3.55;;
66163;SDS011;52962;51.088;3.096;2022-10-31T07:18:10;3.47;;;3.17;;
66163;SDS011;52962;51.088;3.096;2022-10-31T07:20:39;5.30;;;3.58;;
66163;SDS011;52962;51.088;3.096;2022-10-31T07:23:07;3.63;;;3.28;;
66163;SDS011;52962;51.088;3.096;2022-10-31T07:25:35;3.42;;;3.10;;
66163;SDS011;52962;51.088;3.096;2022-10-31T07:28:03;8.13;;;3.40;;
66163;SDS011;52962;51.088;3.096;2022-10-31T07:30:33;3.75;;;3.45;;
66163;SDS011;52962;51.088;3.096;2022-10-31T07:33:01;4.40;;;3.80;;
66163;SDS011;52962;51.088;3.096;2022-10-31T07:35:30;4.07;;;3.67;;
66163;SDS011;52962;51.088;3.096;2022-10-31T07:38:05;3.85;;;3.17;;
66163;SDS011;52962;51.088;3.096;2022-10-31T07:40:34;4.47;;;4.07;;
66163;SDS011;52962;51.088;3.096;2022-10-31T07:43:02;3.85;;;3.53;;
66163;SDS011;52962;51.088;3.096;2022-10-31T07:45:38;4.60;;;4.10;;
66163;SDS011;52962;51.088;3.096;2022-10-31T07:48:06;4.30;;;3.88;;
66163;SDS011;52962;51.088;3.096;2022-10-31T07:50:33;4.70;;;4.30;;
66163;SDS011;52962;51.088;3.096;2022-10-31T07:53:02;4.78;;;3.45;;
66163;SDS011;52962;51.088;3.096;2022-10-31T07:55:32;5.97;;;4.00;;
66163;SDS011;52962;51.088;3.096;2022-10-31T07:58:02;6.85;;;4.38;;
66163;SDS011;52962;51.088;3.096;2022-10-31T08:00:31;7.55;;;4.93;;
66163;SDS011;52962;51.088;3.096;2022-10-31T08:03:02;6.05;;;4.05;;
66163;SDS011;52962;51.088;3.096;2022-10-31T08:05:31;4.75;;;4.05;;
66163;SDS011;52962;51.088;3.096;2022-10-31T08:07:59;7.38;;;4.72;;
66163;SDS011;52962;51.088;3.096;2022-10-31T08:10:29;6.25;;;4.35;;
66163;SDS011;52962;51.088;3.096;2022-10-31T08:12:58;6.32;;;5.10;;
66163;SDS011;52962;51.088;3.096;2022-10-31T08:15:27;10.07;;;5.22;;
66163;SDS011;52962;51.088;3.096;2022-10-31T08:17:55;9.20;;;5.43;;
66163;SDS011;52962;51.088;3.096;2022-10-31T08:20:25;6.47;;;4.25;;
66163;SDS011;52962;51.088;3.096;2022-10-31T08:22:54;7.03;;;4.05;;
66163;SDS011;52962;51.088;3.096;2022-10-31T08:25:24;6.78;;;4.90;;
66163;SDS011;52962;51.088;3.096;2022-10-31T08:27:57;4.57;;;4.03;;
66163;SDS011;52962;51.088;3.096;2022-10-31T08:30:26;4.93;;;4.18;;
66163;SDS011;52962;51.088;3.096;2022-10-31T08:32:59;7.97;;;4.35;;
66163;SDS011;52962;51.088;3.096;2022-10-31T08:35:31;5.85;;;3.92;;
66163;SDS011;52962;51.088;3.096;2022-10-31T08:37:59;6.43;;;4.10;;
66163;SDS011;52962;51.088;3.096;2022-10-31T08:40:29;4.85;;;4.07;;
66163;SDS011;52962;51.088;3.096;2022-10-31T08:42:59;4.53;;;3.88;;
66163;SDS011;52962;51.088;3.096;2022-10-31T08:45:27;5.32;;;4.18;;
66163;SDS011;52962;51.088;3.096;2022-10-31T08:47:56;6.90;;;4.45;;
66163;SDS011;52962;51.088;3.096;2022-10-31T08:50:26;5.20;;;4.32;;
66163;SDS011;52962;51.088;3.096;2022-10-31T08:53:00;6.35;;;4.88;;
66163;SDS011;52962;51.088;3.096;2022-10-31T08:55:32;7.88;;;4.97;;
66163;SDS011;52962;51.088;3.096;2022-10-31T08:58:01;4.97;;;4.47;;
66163;SDS011;52962;51.088;3.096;2022-10-31T09:00:30;6.30;;;4.85;;
66163;SDS011;52962;51.088;3.096;2022-10-31T09:03:00;8.07;;;6.03;;
66163;SDS011;52962;51.088;3.096;2022-10-31T09:05:30;9.35;;;5.22;;
66163;SDS011;52962;51.088;3.096;2022-10-31T09:07:59;7.00;;;6.18;;
66163;SDS011;52962;51.088;3.096;2022-10-31T09:10:30;7.95;;;5.65;;
66163;SDS011;52962;51.088;3.096;2022-10-31T09:13:00;6.97;;;5.53;;
66163;SDS011;52962;51.088;3.096;2022-10-31T09:15:31;5.53;;;5.00;;
66163;SDS011;52962;51.088;3.096;2022-10-31T09:18:00;7.07;;;6.10;;
66163;SDS011;52962;51.088;3.096;2022-10-31T09:20:28;10.32;;;6.60;;
66163;SDS011;52962;51.088;3.096;2022-10-31T09:22:58;6.85;;;6.10;;
66163;SDS011;52962;51.088;3.096;2022-10-31T09:25:28;8.23;;;6.45;;
66163;SDS011;52962;51.088;3.096;2022-10-31T09:27:56;9.00;;;6.93;;
66163;SDS011;52962;51.088;3.096;2022-10-31T09:30:26;6.93;;;6.05;;
66163;SDS011;52962;51.088;3.096;2022-10-31T09:32:55;9.93;;;7.22;;
66163;SDS011;52962;51.088;3.096;2022-10-31T09:37:54;7.57;;;6.10;;
66163;SDS011;52962;51.088;3.096;2022-10-31T09:40:23;7.75;;;6.85;;
66163;SDS011;52962;51.088;3.096;2022-10-31T09:42:58;6.60;;;6.00;;
66163;SDS011;52962;51.088;3.096;2022-10-31T09:45:35;8.75;;;5.32;;
66163;SDS011;52962;51.088;3.096;2022-10-31T09:51:03;6.13;;;4.53;;
66163;SDS011;52962;51.088;3.096;2022-10-31T09:53:35;6.30;;;4.82;;
66163;SDS011;52962;51.088;3.096;2022-10-31T09:56:07;5.80;;;5.25;;
66163;SDS011;52962;51.088;3.096;2022-10-31T09:58:42;5.90;;;5.40;;
66163;SDS011;52962;51.088;3.096;2022-10-31T10:01:17;5.93;;;4.78;;
66163;SDS011;52962;51.088;3.096;2022-10-31T10:04:02;5.28;;;4.65;;
66163;SDS011;52962;51.088;3.096;2022-10-31T10:06:44;7.60;;;4.50;;
66163;SDS011;52962;51.088;3.096;2022-10-31T10:09:14;3.88;;;3.45;;
66163;SDS011;52962;51.088;3.096;2022-10-31T10:11:46;4.43;;;4.00;;
66163;SDS011;52962;51.088;3.096;2022-10-31T10:14:28;4.28;;;3.95;;
66163;SDS011;52962;51.088;3.096;2022-10-31T10:17:11;5.03;;;4.53;;
66163;SDS011;52962;51.088;3.096;2022-10-31T10:19:55;4.88;;;3.88;;
66163;SDS011;52962;51.088;3.096;2022-10-31T10:22:37;6.35;;;4.90;;
66163;SDS011;52962;51.088;3.096;2022-10-31T10:25:15;4.32;;;3.92;;
66163;SDS011;52962;51.088;3.096;2022-10-31T10:27:59;5.80;;;5.05;;
66163;SDS011;52962;51.088;3.096;2022-10-31T10:30:35;5.03;;;4.63;;
66163;SDS011;52962;51.088;3.096;2022-10-31T10:33:09;5.70;;;4.45;;
66163;SDS011;52962;51.088;3.096;2022-10-31T10:35:41;5.47;;;4.57;;
66163;SDS011;52962;51.088;3.096;2022-10-31T10:38:14;4.82;;;4.38;;
66163;SDS011;52962;51.088;3.096;2022-10-31T10:40:47;5.25;;;4.72;;
66163;SDS011;52962;51.088;3.096;2022-10-31T10:45:55;4.15;;;3.75;;
66163;SDS011;52962;51.088;3.096;2022-10-31T10:48:51;5.05;;;4.55;;
66163;SDS011;52962;51.088;3.096;2022-10-31T10:51:27;4.90;;;4.47;;
66163;SDS011;52962;51.088;3.096;2022-10-31T10:57:30;5.20;;;4.70;;
66163;SDS011;52962;51.088;3.096;2022-10-31T11:00:13;5.38;;;4.68;;
66163;SDS011;52962;51.088;3.096;2022-10-31T11:02:46;5.85;;;5.25;;
66163;SDS011;52962;51.088;3.096;2022-10-31T11:05:17;4.50;;;4.10;;
66163;SDS011;52962;51.088;3.096;2022-10-31T11:07:50;5.53;;;4.95;;
66163;SDS011;52962;51.088;3.096;2022-10-31T11:10:18;4.88;;;4.35;;
66163;SDS011;52962;51.088;3.096;2022-10-31T11:12:57;5.00;;;4.40;;
66163;SDS011;52962;51.088;3.096;2022-10-31T11:15:33;4.78;;;4.35;;
66163;SDS011;52962;51.088;3.096;2022-10-31T11:18:12;5.20;;;4.68;;
66163;SDS011;52962;51.088;3.096;2022-10-31T11:20:53;5.07;;;4.20;;
66163;SDS011;52962;51.088;3.096;2022-10-31T11:23:23;4.60;;;4.20;;
66163;SDS011;52962;51.088;3.096;2022-10-31T11:25:53;4.43;;;4.03;;
66163;SDS011;52962;51.088;3.096;2022-10-31T11:28:23;4.40;;;3.83;;
66163;SDS011;52962;51.088;3.096;2022-10-31T11:30:52;5.03;;;3.65;;
66163;SDS011;52962;51.088;3.096;2022-10-31T11:33:24;4.15;;;3.75;;
66163;SDS011;52962;51.088;3.096;2022-10-31T11:35:55;5.25;;;4.75;;
66163;SDS011;52962;51.088;3.096;2022-10-31T11:38:32;4.22;;;3.83;;
66163;SDS011;52962;51.088;3.096;2022-10-31T11:41:05;5.05;;;4.38;;
66163;SDS011;52962;51.088;3.096;2022-10-31T11:43:45;4.43;;;4.03;;
66163;SDS011;52962;51.088;3.096;2022-10-31T11:46:17;3.83;;;3.10;;
66163;SDS011;52962;51.088;3.096;2022-10-31T11:48:52;4.03;;;3.22;;
66163;SDS011;52962;51.088;3.096;2022-10-31T11:51:23;6.25;;;3.95;;
66163;SDS011;52962;51.088;3.096;2022-10-31T11:53:54;4.45;;;3.75;;
66163;SDS011;52962;51.088;3.096;2022-10-31T11:56:37;5.97;;;4.25;;
66163;SDS011;52962;51.088;3.096;2022-10-31T11:59:16;4.75;;;4.20;;
66163;SDS011;52962;51.088;3.096;2022-10-31T12:01:47;4.85;;;4.45;;
66163;SDS011;52962;51.088;3.096;2022-10-31T12:04:18;4.55;;;4.05;;
66163;SDS011;52962;51.088;3.096;2022-10-31T12:06:52;4.30;;;3.90;;
66163;SDS011;52962;51.088;3.096;2022-10-31T12:09:21;4.93;;;4.53;;
66163;SDS011;52962;51.088;3.096;2022-10-31T12:11:55;7.88;;;4.75;;
66163;SDS011;52962;51.088;3.096;2022-10-31T12:14:48;5.25;;;4.65;;
66163;SDS011;52962;51.088;3.096;2022-10-31T12:17:27;5.70;;;5.10;;
66163;SDS011;52962;51.088;3.096;2022-10-31T12:20:05;5.65;;;5.10;;
66163;SDS011;52962;51.088;3.096;2022-10-31T12:22:42;8.35;;;4.43;;
66163;SDS011;52962;51.088;3.096;2022-10-31T12:25:24;6.68;;;4.85;;
66163;SDS011;52962;51.088;3.096;2022-10-31T12:28:08;5.38;;;4.70;;
66163;SDS011;52962;51.088;3.096;2022-10-31T12:30:56;6.68;;;4.93;;
66163;SDS011;52962;51.088;3.096;2022-10-31T12:33:36;4.85;;;4.43;;
66163;SDS011;52962;51.088;3.096;2022-10-31T12:36:20;6.72;;;4.85;;
66163;SDS011;52962;51.088;3.096;2022-10-31T12:39:02;5.25;;;4.80;;
66163;SDS011;52962;51.088;3.096;2022-10-31T12:41:44;5.72;;;4.82;;
66163;SDS011;52962;51.088;3.096;2022-10-31T12:44:21;5.47;;;4.70;;
66163;SDS011;52962;51.088;3.096;2022-10-31T12:47:04;5.15;;;4.65;;
66163;SDS011;52962;51.088;3.096;2022-10-31T12:49:49;5.90;;;5.32;;
66163;SDS011;52962;51.088;3.096;2022-10-31T12:52:33;5.95;;;4.10;;
66163;SDS011;52962;51.088;3.096;2022-10-31T12:55:12;7.15;;;5.32;;
66163;SDS011;52962;51.088;3.096;2022-10-31T12:57:52;7.05;;;4.97;;
66163;SDS011;52962;51.088;3.096;2022-10-31T13:00:24;7.22;;;5.05;;
66163;SDS011;52962;51.088;3.096;2022-10-31T13:02:56;6.45;;;4.80;;
66163;SDS011;52962;51.088;3.096;2022-10-31T13:05:27;6.22;;;5.00;;
66163;SDS011;52962;51.088;3.096;2022-10-31T13:08:01;8.07;;;5.43;;
66163;SDS011;52962;51.088;3.096;2022-10-31T13:10:34;5.22;;;4.72;;
66163;SDS011;52962;51.088;3.096;2022-10-31T13:13:10;6.50;;;4.95;;
66163;SDS011;52962;51.088;3.096;2022-10-31T13:15:45;5.60;;;4.95;;
66163;SDS011;52962;51.088;3.096;2022-10-31T13:18:21;7.82;;;4.82;;
66163;SDS011;52962;51.088;3.096;2022-10-31T13:20:55;5.82;;;4.68;;
66163;SDS011;52962;51.088;3.096;2022-10-31T13:23:27;6.07;;;4.78;;
66163;SDS011;52962;51.088;3.096;2022-10-31T13:26:19;5.20;;;4.70;;
66163;SDS011;52962;51.088;3.096;2022-10-31T13:28:57;4.60;;;4.20;;
66163;SDS011;52962;51.088;3.096;2022-10-31T13:31:31;5.20;;;4.63;;
66163;SDS011;52962;51.088;3.096;2022-10-31T13:34:00;4.78;;;4.28;;
66163;SDS011;52962;51.088;3.096;2022-10-31T13:36:37;5.35;;;4.35;;
66163;SDS011;52962;51.088;3.096;2022-10-31T13:39:14;4.85;;;4.35;;
66163;SDS011;52962;51.088;3.096;2022-10-31T13:41:51;4.90;;;4.40;;
66163;SDS011;52962;51.088;3.096;2022-10-31T13:44:22;7.20;;;4.43;;
66163;SDS011;52962;51.088;3.096;2022-10-31T13:46:52;5.40;;;4.60;;
66163;SDS011;52962;51.088;3.096;2022-10-31T13:49:25;5.97;;;4.63;;
66163;SDS011;52962;51.088;3.096;2022-10-31T13:52:05;5.75;;;5.25;;
66163;SDS011;52962;51.088;3.096;2022-10-31T13:54:45;5.57;;;4.68;;
66163;SDS011;52962;51.088;3.096;2022-10-31T13:57:16;6.70;;;5.40;;
66163;SDS011;52962;51.088;3.096;2022-10-31T13:59:47;5.53;;;5.03;;
66163;SDS011;52962;51.088;3.096;2022-10-31T14:02:19;5.35;;;4.85;;
66163;SDS011;52962;51.088;3.096;2022-10-31T14:04:54;7.47;;;5.30;;
66163;SDS011;52962;51.088;3.096;2022-10-31T14:07:25;7.78;;;5.30;;
66163;SDS011;52962;51.088;3.096;2022-10-31T14:09:57;6.63;;;5.40;;
66163;SDS011;52962;51.088;3.096;2022-10-31T14:12:29;7.40;;;5.40;;
66163;SDS011;52962;51.088;3.096;2022-10-31T14:15:03;6.57;;;5.25;;
66163;SDS011;52962;51.088;3.096;2022-10-31T14:17:36;7.18;;;5.15;;
66163;SDS011;52962;51.088;3.096;2022-10-31T14:26:08;6.00;;;5.47;;
66163;SDS011;52962;51.088;3.096;2022-10-31T14:28:46;5.43;;;4.93;;
66163;SDS011;52962;51.088;3.096;2022-10-31T14:31:27;5.65;;;5.15;;
66163;SDS011;52962;51.088;3.096;2022-10-31T14:34:01;7.47;;;5.50;;
66163;SDS011;52962;51.088;3.096;2022-10-31T14:36:38;7.07;;;5.38;;
66163;SDS011;52962;51.088;3.096;2022-10-31T14:39:15;8.70;;;5.70;;
66163;SDS011;52962;51.088;3.096;2022-10-31T14:41:53;7.70;;;5.63;;
66163;SDS011;52962;51.088;3.096;2022-10-31T14:44:43;5.95;;;5.38;;
66163;SDS011;52962;51.088;3.096;2022-10-31T14:47:26;7.00;;;5.55;;
66163;SDS011;52962;51.088;3.096;2022-10-31T14:50:17;7.30;;;5.78;;
66163;SDS011;52962;51.088;3.096;2022-10-31T14:52:49;9.45;;;5.65;;
66163;SDS011;52962;51.088;3.096;2022-10-31T14:55:20;6.63;;;6.00;;
66163;SDS011;52962;51.088;3.096;2022-10-31T14:57:53;7.18;;;6.25;;
66163;SDS011;52962;51.088;3.096;2022-10-31T15:00:23;8.65;;;5.85;;
66163;SDS011;52962;51.088;3.096;2022-10-31T15:02:57;7.95;;;5.75;;
66163;SDS011;52962;51.088;3.096;2022-10-31T15:05:32;7.95;;;5.45;;
66163;SDS011;52962;51.088;3.096;2022-10-31T15:08:12;7.43;;;6.20;;
66163;SDS011;52962;51.088;3.096;2022-10-31T15:10:44;6.35;;;5.55;;
66163;SDS011;52962;51.088;3.096;2022-10-31T15:13:17;7.72;;;5.80;;
66163;SDS011;52962;51.088;3.096;2022-10-31T15:18:18;7.10;;;6.40;;
66163;SDS011;52962;51.088;3.096;2022-10-31T15:20:50;9.73;;;6.10;;
66163;SDS011;52962;51.088;3.096;2022-10-31T15:23:21;9.23;;;7.13;;
66163;SDS011;52962;51.088;3.096;2022-10-31T15:25:57;7.68;;;6.78;;
66163;SDS011;52962;51.088;3.096;2022-10-31T15:28:28;9.07;;;6.95;;
66163;SDS011;52962;51.088;3.096;2022-10-31T15:30:58;7.97;;;7.28;;
66163;SDS011;52962;51.088;3.096;2022-10-31T15:33:27;7.13;;;6.43;;
66163;SDS011;52962;51.088;3.096;2022-10-31T15:36:04;7.25;;;6.55;;
66163;SDS011;52962;51.088;3.096;2022-10-31T15:38:34;7.80;;;6.97;;
66163;SDS011;52962;51.088;3.096;2022-10-31T15:41:03;7.40;;;6.80;;
66163;SDS011;52962;51.088;3.096;2022-10-31T15:43:35;8.60;;;7.30;;
66163;SDS011;52962;51.088;3.096;2022-10-31T15:46:06;9.43;;;6.53;;
66163;SDS011;52962;51.088;3.096;2022-10-31T15:48:36;8.38;;;5.78;;
66163;SDS011;52962;51.088;3.096;2022-10-31T15:51:06;8.38;;;6.78;;
66163;SDS011;52962;51.088;3.096;2022-10-31T15:53:35;9.32;;;6.93;;
66163;SDS011;52962;51.088;3.096;2022-10-31T15:56:05;7.72;;;6.95;;